Date,TemperatureHighF,TemperatureAvgF,TemperatureLowF,DewpointHighF,DewpointAvgF,DewpointLowF,HumidityHigh,HumidityAvg,HumidityLow,PressureMaxIn,PressureMinIn,WindSpeedMaxMPH,WindSpeedAvgMPH,GustSpeedMaxMPH,PrecipitationSumIn
2013-2-14,35.1,33.0,29.7,5.2,3.4,0.5,28,28,28,29.70,29.53,13,8,13,0.00
2013-2-15,32.7,26.2,20.8,3.1,-2.5,-7.2,29,28,28,30.00,29.66,8,5,8,0.00
2013-2-16,34.2,21.3,13.6,4.3,-6.8,-13.5,28,28,28,29.99,29.80,7,2,7,0.00
2013-2-17,27.5,16.3,6.4,-1.4,-11.2,-19.8,28,28,28,30.09,29.88,8,3,8,0.00
2013-2-18,82.0,30.9,11.8,45.7,1.5,-15.1,28,28,28,30.08,29.36,12,7,12,0.00
2013-2-19,43.9,29.2,17.2,12.8,0.1,-10.4,28,28,28,29.74,29.15,17,11,17,0.00
2013-2-20,24.3,19.4,15.4,-4.2,-8.5,-11.9,28,28,28,30.13,29.71,10,7,10,0.00
2013-2-21,28.0,20.2,15.4,-0.9,-7.8,-11.9,28,28,28,30.29,30.08,12,6,12,0.00
2013-2-22,34.7,27.3,20.8,4.9,-1.6,-7.2,28,28,28,30.16,29.66,12,7,12,0.00
2013-2-23,38.3,30.7,25.0,8.0,1.4,-3.6,28,28,28,29.77,29.65,10,6,10,0.00
2013-2-24,42.4,28.7,20.8,11.3,-0.3,-7.2,30,28,28,30.03,29.70,7,3,7,0.00
2013-2-25,51.1,29.4,15.4,18.4,0.2,-11.9,28,28,28,30.13,29.93,5,2,5,0.00
2013-2-26,38.5,30.0,20.8,8.0,0.7,-7.2,28,28,28,30.01,29.37,12,7,12,0.00
2013-2-27,38.5,33.9,31.8,8.1,4.2,2.4,28,28,28,29.43,29.28,8,3,8,0.00
2013-2-28,34.2,31.3,27.3,4.4,1.9,-1.6,28,28,28,29.85,29.35,9,6,9,0.00
2013-3-1,27.5,24.5,20.8,-1.6,-4.0,-7.2,28,28,28,30.01,29.81,11,6,11,0.00
2013-3-2,27.3,23.4,19.2,-1.6,-5.0,-8.8,28,28,28,29.98,29.89,7,4,7,0.00
2013-3-3,31.3,23.3,15.4,1.9,-5.0,-11.9,28,28,28,29.95,29.82,7,3,7,0.00
2013-3-4,41.4,24.4,12.0,10.6,-4.1,-15.1,28,28,28,30.04,29.87,6,2,6,0.00
2013-3-5,41.5,26.5,13.6,10.8,-2.3,-13.5,28,28,28,30.02,29.68,13,6,13,0.00
2013-3-6,43.2,31.7,22.6,12.2,2.3,-5.6,28,28,28,30.10,29.72,13,4,13,0.00
2013-3-7,35.6,31.1,22.6,6.1,1.7,-5.6,29,28,28,30.29,30.03,7,2,7,0.00
2013-3-8,52.7,32.2,17.2,21.3,2.8,-10.4,29,28,28,30.42,30.23,6,2,6,0.00
2013-3-9,52.3,35.8,20.8,20.2,5.8,-7.2,28,28,28,30.33,29.87,9,4,9,0.00
2013-3-10,58.6,47.0,36.9,25.6,15.5,6.7,29,28,28,29.91,29.61,9,4,9,0.00
2013-3-11,52.9,47.6,36.1,23.5,18.3,9.7,35,31,29,29.66,29.28,11,7,11,0.00
2013-3-12,40.5,34.1,29.5,12.9,7.3,3.2,34,32,31,29.77,29.48,10,7,10,0.00
2013-3-13,34.7,28.4,22.6,6.1,0.5,-4.8,32,30,28,30.09,29.69,10,6,10,0.00
2013-3-14,43.5,30.7,20.8,13.3,1.8,-7.2,31,29,28,30.16,29.90,7,4,7,0.00
2013-3-15,39.2,34.1,29.1,8.8,4.4,0.0,29,28,28,29.95,29.70,8,5,8,0.00
2013-3-24,29.8,29.4,29.1,0.6,0.2,-0.1,28,28,28,29.60,29.50,13,10,13,0.00
2013-3-25,38.7,33.1,29.3,8.3,3.5,0.2,28,28,28,29.80,29.44,15,9,15,0.00
2013-3-26,46.9,35.6,31.1,15.5,5.7,1.7,28,28,28,29.99,29.77,7,4,7,0.00
2013-3-27,51.1,37.5,27.7,19.1,7.8,-1.2,33,29,28,30.09,29.93,9,4,9,0.00
2013-3-28,53.4,40.5,31.3,38.2,15.1,1.9,61,36,28,30.19,30.03,7,3,7,0.00
2013-3-29,58.3,40.7,27.3,26.1,13.0,0.1,43,32,28,30.21,30.08,7,3,7,0.00
2013-6-3,73.9,72.4,70.5,54.3,53.2,51.5,51,51,51,30.00,29.97,5,2,5,0.00